National Weather Service United States Department of Commerce
Click Here for Latest Airport Weather Warnings
 
Latest Huntsville TAF


000
FTUS44 KHUN 271120
TAFHSV
TAF
KHSV 271120Z 2712/2812 18003KT P6SM FEW200=

Latest Muscle Shoals TAF


000
FTUS44 KHUN 271120
TAFMSL
TAF
KMSL 271120Z 2712/2812 19003KT P6SM SKC
TEMPO 2712/2713 1SM BR=


Back to Main Huntsville Weather Forecast Office Page